Time;durP1;ratioP1;P1;durP2;ratioP2;P2;SDS_P1;SDS_P2;PMS_P1;PMS_P2;Temp;Humidity;BMP_temperature;BMP_pressure;BME280_temperature;BME280_humidity;BME280_pressure;Samples;Min_cycle;Max_cycle;Signal;HPM_P1;HPM_P2
2023/12/19 00:00:59;;;;;;;31.90;11.30;;;7.30;99.90;;;;;;4990777;28;20464;-78
2023/12/19 00:03:25;;;;;;;35.90;11.95;;;7.30;99.90;;;;;;4991228;28;20030;-77
2023/12/19 00:05:50;;;;;;;34.80;13.73;;;7.30;99.90;;;;;;4992411;28;20122;-75
2023/12/19 00:08:16;;;;;;;35.55;12.73;;;7.30;99.90;;;;;;4973202;28;20055;-78
2023/12/19 00:10:42;;;;;;;32.75;13.02;;;7.30;99.90;;;;;;4979622;28;20023;-78
2023/12/19 00:13:08;;;;;;;36.92;13.75;;;7.30;99.90;;;;;;4990293;28;20030;-79
2023/12/19 00:15:34;;;;;;;30.50;12.20;;;7.30;99.90;;;;;;4993079;28;20061;-78
2023/12/19 00:17:59;;;;;;;37.05;13.18;;;7.30;99.90;;;;;;4992918;28;20042;-80
2023/12/19 00:20:25;;;;;;;39.40;12.93;;;7.30;99.90;;;;;;4991786;28;20038;-76
2023/12/19 00:22:51;;;;;;;37.17;13.35;;;7.30;99.90;;;;;;4991149;28;20209;-77
2023/12/19 00:25:16;;;;;;;36.80;13.50;;;7.20;99.90;;;;;;4992688;28;20741;-78
2023/12/19 00:27:42;;;;;;;42.17;12.73;;;7.30;99.90;;;;;;4990941;28;20375;-75
2023/12/19 00:30:08;;;;;;;38.58;13.48;;;7.30;99.90;;;;;;4985659;28;20027;-76
2023/12/19 00:32:33;;;;;;;46.88;14.65;;;7.30;99.90;;;;;;4989592;28;20120;-78
2023/12/19 00:34:59;;;;;;;34.72;12.70;;;7.40;99.90;;;;;;4989401;28;20120;-78
2023/12/19 00:37:25;;;;;;;42.80;13.98;;;7.30;99.90;;;;;;4989327;28;20034;-75
2023/12/19 00:39:50;;;;;;;44.65;15.38;;;7.40;99.90;;;;;;4989338;28;20030;-75
2023/12/19 00:42:16;;;;;;;36.72;14.13;;;7.40;99.90;;;;;;4989732;28;20614;-76
2023/12/19 00:44:41;;;;;;;42.45;14.02;;;7.40;99.90;;;;;;4989492;28;20442;-75
2023/12/19 00:47:07;;;;;;;41.75;14.70;;;7.40;99.90;;;;;;4989685;28;20018;-75
2023/12/19 00:49:32;;;;;;;37.55;13.55;;;7.40;99.90;;;;;;4994683;28;20052;-75
2023/12/19 00:51:59;;;;;;;40.28;13.68;;;7.40;99.90;;;;;;4993325;28;20034;-76
2023/12/19 00:54:25;;;;;;;47.70;14.88;;;7.40;99.90;;;;;;4988721;28;20038;-76
2023/12/19 00:56:51;;;;;;;34.40;13.82;;;7.40;99.90;;;;;;4989321;28;20034;-76
2023/12/19 00:59:16;;;;;;;47.70;14.35;;;7.40;99.90;;;;;;4989475;28;20042;-76
2023/12/19 01:01:42;;;;;;;38.20;14.70;;;7.40;99.90;;;;;;4988765;28;20030;-76
2023/12/19 01:04:09;;;;;;;40.40;14.43;;;7.30;99.90;;;;;;4988890;28;20030;-76
2023/12/19 01:06:35;;;;;;;44.20;14.55;;;7.40;99.90;;;;;;4984813;28;20034;-76
2023/12/19 01:09:01;;;;;;;43.78;15.27;;;7.40;99.90;;;;;;4974850;28;20091;-76
2023/12/19 01:11:26;;;;;;;41.88;15.13;;;7.40;99.90;;;;;;4969075;28;20526;-76
2023/12/19 01:13:52;;;;;;;35.70;13.40;;;7.40;99.90;;;;;;4969243;28;20081;-75
2023/12/19 01:16:18;;;;;;;44.55;14.30;;;7.40;99.90;;;;;;4987359;28;20743;-77
2023/12/19 01:18:43;;;;;;;42.25;14.75;;;7.40;99.90;;;;;;4988438;28;20038;-77
2023/12/19 01:21:09;;;;;;;36.92;14.60;;;7.50;99.90;;;;;;4988300;28;20372;-76
2023/12/19 01:23:34;;;;;;;49.63;14.57;;;7.50;99.90;;;;;;4988605;28;20093;-77
2023/12/19 01:26:00;;;;;;;38.65;14.30;;;7.50;99.90;;;;;;4988319;28;20048;-76
2023/12/19 01:28:25;;;;;;;40.05;14.30;;;7.50;99.90;;;;;;4988476;28;20033;-76
2023/12/19 01:30:51;;;;;;;47.25;16.10;;;7.50;99.90;;;;;;4986622;28;20054;-76
2023/12/19 01:33:17;;;;;;;40.28;13.75;;;7.50;99.90;;;;;;4987750;28;20125;-78
2023/12/19 01:35:42;;;;;;;35.78;13.63;;;7.50;99.90;;;;;;4988211;28;20129;-76
2023/12/19 01:38:09;;;;;;;34.33;14.07;;;7.50;99.90;;;;;;4987078;28;20034;-76
2023/12/19 01:40:34;;;;;;;38.65;13.00;;;7.50;99.90;;;;;;4986880;28;20097;-75
2023/12/19 01:43:01;;;;;;;33.30;13.55;;;7.50;99.90;;;;;;4986691;28;20038;-75
2023/12/19 01:45:28;;;;;;;47.63;14.82;;;7.50;99.90;;;;;;4988870;28;20037;-76
2023/12/19 01:47:54;;;;;;;38.85;13.02;;;7.50;99.90;;;;;;4986899;28;20125;-77
2023/12/19 01:50:20;;;;;;;30.77;13.10;;;7.50;99.90;;;;;;4987266;28;20113;-76
2023/12/19 01:52:53;;;;;;;34.22;13.93;;;7.50;99.90;;;;;;4988055;28;20034;-76
2023/12/19 01:55:20;;;;;;;41.10;14.40;;;7.50;99.90;;;;;;4988342;28;20459;-75
2023/12/19 01:57:47;;;;;;;40.08;14.48;;;7.50;99.90;;;;;;4987824;28;20529;-75
2023/12/19 02:00:14;;;;;;;40.42;12.88;;;7.50;99.90;;;;;;4988299;28;20416;-76
2023/12/19 02:02:40;;;;;;;33.70;12.18;;;7.50;99.90;;;;;;4986379;28;20046;-75
2023/12/19 02:05:07;;;;;;;37.33;12.48;;;7.50;99.90;;;;;;4988707;28;20092;-77
2023/12/19 02:07:33;;;;;;;41.20;13.68;;;7.50;99.90;;;;;;4977900;28;20035;-77
2023/12/19 02:10:00;;;;;;;32.20;12.07;;;7.50;99.90;;;;;;4975968;28;20856;-76
2023/12/19 02:12:26;;;;;;;36.92;13.98;;;7.50;99.90;;;;;;4990901;28;20053;-77
2023/12/19 02:14:52;;;;;;;49.65;13.65;;;7.50;99.90;;;;;;4990224;28;20042;-77
2023/12/19 02:17:19;;;;;;;34.70;13.35;;;7.50;99.90;;;;;;4989075;28;20022;-77
2023/12/19 02:19:45;;;;;;;30.52;12.75;;;7.50;99.90;;;;;;4989424;28;20114;-76
2023/12/19 02:22:11;;;;;;;37.42;13.57;;;7.40;99.90;;;;;;4988520;28;20041;-78
2023/12/19 02:24:37;;;;;;;38.60;14.38;;;7.50;99.90;;;;;;4976647;28;20142;-77
2023/12/19 02:27:03;;;;;;;33.42;11.75;;;7.50;99.90;;;;;;5194604;22;20035;-72
2023/12/19 02:29:29;;;;;;;28.42;11.52;;;7.50;99.90;;;;;;4950842;28;20031;-73
2023/12/19 02:31:54;;;;;;;27.60;12.98;;;7.50;99.90;;;;;;4934989;28;20043;-73
2023/12/19 02:34:20;;;;;;;28.92;12.70;;;7.60;99.90;;;;;;4970833;28;20039;-73
2023/12/19 02:36:46;;;;;;;29.58;11.02;;;7.50;99.90;;;;;;4964075;28;20031;-72
2023/12/19 02:39:11;;;;;;;28.35;10.82;;;7.60;99.90;;;;;;4970906;28;20027;-74
2023/12/19 02:41:37;;;;;;;37.17;12.75;;;7.50;99.90;;;;;;4969663;28;20451;-72
2023/12/19 02:44:02;;;;;;;32.22;11.65;;;7.50;99.90;;;;;;4970358;28;20092;-74
2023/12/19 02:46:28;;;;;;;39.42;13.60;;;7.50;99.90;;;;;;4970147;28;20054;-72
2023/12/19 02:48:53;;;;;;;30.30;11.65;;;7.50;99.90;;;;;;4965290;28;20090;-72
2023/12/19 02:51:20;;;;;;;29.77;10.68;;;7.50;99.90;;;;;;4970329;28;20467;-72
2023/12/19 02:53:46;;;;;;;35.13;13.25;;;7.50;99.90;;;;;;4969422;28;20034;-73
2023/12/19 02:56:12;;;;;;;24.95;12.10;;;7.50;99.90;;;;;;4970346;28;20035;-73
2023/12/19 02:58:37;;;;;;;33.72;12.43;;;7.50;99.90;;;;;;4970990;28;20042;-72
2023/12/19 03:01:06;;;;;;;35.63;12.38;;;7.60;99.90;;;;;;4969738;28;20022;-72
2023/12/19 03:03:32;;;;;;;29.45;10.60;;;7.60;99.90;;;;;;4969825;28;20463;-73
2023/12/19 03:05:57;;;;;;;32.53;12.13;;;7.60;99.90;;;;;;4969579;28;20085;-72
2023/12/19 03:08:23;;;;;;;36.30;11.18;;;7.60;99.90;;;;;;4964213;28;20147;-73
2023/12/19 03:10:49;;;;;;;34.55;12.23;;;7.60;99.90;;;;;;4969528;28;20038;-72
2023/12/19 03:13:14;;;;;;;33.85;12.68;;;7.60;99.90;;;;;;4969988;28;20490;-72
2023/12/19 03:15:40;;;;;;;33.25;11.35;;;7.60;99.90;;;;;;4964031;28;20491;-74
2023/12/19 03:18:05;;;;;;;33.63;10.95;;;7.60;99.90;;;;;;4963917;28;20062;-73
2023/12/19 03:20:31;;;;;;;35.28;13.60;;;7.60;99.90;;;;;;4970924;28;20124;-72
2023/12/19 03:22:56;;;;;;;31.80;11.57;;;7.60;99.90;;;;;;4970919;28;20041;-73
2023/12/19 03:25:22;;;;;;;28.02;11.73;;;7.70;99.90;;;;;;4970260;28;20035;-74
2023/12/19 03:27:48;;;;;;;28.75;11.77;;;7.70;99.90;;;;;;4969667;28;20618;-74
2023/12/19 03:30:13;;;;;;;31.67;10.40;;;7.70;99.90;;;;;;4969404;28;20031;-74
2023/12/19 03:32:39;;;;;;;28.20;10.32;;;7.60;99.90;;;;;;4969211;28;20069;-73
2023/12/19 03:35:05;;;;;;;38.95;11.98;;;7.70;99.90;;;;;;4970482;28;20147;-72
2023/12/19 03:37:31;;;;;;;27.30;10.57;;;7.70;99.90;;;;;;4968971;28;20049;-73
2023/12/19 03:39:57;;;;;;;29.05;10.25;;;7.70;99.90;;;;;;4968359;28;20037;-74
2023/12/19 03:42:23;;;;;;;29.90;10.35;;;7.70;99.90;;;;;;4969011;28;20447;-72
2023/12/19 03:44:48;;;;;;;33.63;11.90;;;7.70;99.90;;;;;;4966889;28;20106;-72
2023/12/19 03:47:14;;;;;;;23.55;9.68;;;7.70;99.90;;;;;;4950085;28;20039;-73
2023/12/19 03:49:40;;;;;;;30.75;10.60;;;7.70;99.90;;;;;;4959976;28;20406;-73
2023/12/19 03:52:06;;;;;;;27.05;10.30;;;7.70;99.90;;;;;;4968642;28;20122;-73
2023/12/19 03:54:32;;;;;;;27.80;9.88;;;7.70;99.90;;;;;;4968451;28;20031;-73
2023/12/19 03:56:57;;;;;;;23.80;10.02;;;7.80;99.90;;;;;;4970371;28;20045;-74
2023/12/19 03:59:23;;;;;;;21.42;9.25;;;7.70;99.90;;;;;;4968776;28;20034;-75
2023/12/19 04:01:48;;;;;;;24.35;10.27;;;7.80;99.90;;;;;;4968445;28;20129;-74
2023/12/19 04:04:17;;;;;;;28.33;11.10;;;7.80;99.90;;;;;;4969185;28;20054;-74
2023/12/19 04:06:43;;;;;;;21.30;9.85;;;7.80;99.90;;;;;;4965917;28;20042;-74
2023/12/19 04:09:09;;;;;;;29.50;10.00;;;7.80;99.90;;;;;;4951008;28;20107;-73
2023/12/19 04:11:36;;;;;;;29.38;10.77;;;7.80;99.90;;;;;;4949127;28;20094;-75
2023/12/19 04:14:02;;;;;;;26.52;9.95;;;7.80;99.90;;;;;;4966977;28;20114;-73
2023/12/19 04:16:27;;;;;;;23.10;9.65;;;7.80;99.90;;;;;;4963455;28;20031;-73
2023/12/19 04:18:53;;;;;;;25.33;9.77;;;7.80;99.90;;;;;;4953721;28;20561;-74
2023/12/19 04:21:18;;;;;;;31.88;10.75;;;7.80;99.90;;;;;;4970317;28;20034;-73
2023/12/19 04:23:44;;;;;;;26.23;11.43;;;7.80;99.90;;;;;;4969773;28;20082;-73
2023/12/19 04:26:20;;;;;;;31.42;10.50;;;7.80;99.90;;;;;;4967577;28;20118;-74
2023/12/19 04:28:46;;;;;;;27.15;10.15;;;7.80;99.90;;;;;;4969723;28;20019;-73
2023/12/19 04:31:12;;;;;;;24.05;9.45;;;7.90;99.90;;;;;;4967942;28;20041;-74
2023/12/19 04:33:38;;;;;;;21.80;9.25;;;7.90;99.90;;;;;;4969468;28;20410;-74
2023/12/19 04:36:03;;;;;;;23.80;9.82;;;7.90;99.90;;;;;;4968090;28;20027;-72
2023/12/19 04:38:29;;;;;;;20.95;9.00;;;7.90;99.90;;;;;;4969539;28;20135;-74
2023/12/19 04:40:54;;;;;;;30.02;10.32;;;7.90;99.90;;;;;;4967727;28;20043;-72
2023/12/19 04:43:20;;;;;;;21.90;9.82;;;7.90;99.90;;;;;;4968358;28;20463;-73
2023/12/19 04:45:46;;;;;;;22.13;9.65;;;7.90;99.90;;;;;;4967693;28;20027;-72
2023/12/19 04:48:11;;;;;;;22.15;9.55;;;7.90;99.90;;;;;;4967998;28;20043;-71
2023/12/19 04:50:37;;;;;;;22.00;10.38;;;8.00;99.90;;;;;;4968624;28;20514;-73
2023/12/19 04:53:03;;;;;;;20.08;9.40;;;8.00;99.90;;;;;;4949517;28;20047;-74
2023/12/19 04:55:28;;;;;;;23.85;9.73;;;8.00;99.90;;;;;;4949618;28;20035;-73
2023/12/19 04:57:54;;;;;;;19.50;9.50;;;7.90;99.90;;;;;;4948516;28;20035;-73
2023/12/19 05:00:19;;;;;;;19.52;9.18;;;7.90;99.90;;;;;;4948793;28;20027;-72
2023/12/19 05:02:45;;;;;;;17.90;8.73;;;8.00;99.90;;;;;;4948596;28;20110;-73
2023/12/19 05:05:11;;;;;;;19.75;8.88;;;8.00;99.90;;;;;;4968966;28;20042;-74
2023/12/19 05:07:37;;;;;;;18.85;8.57;;;8.00;99.90;;;;;;4958880;28;20035;-71
2023/12/19 05:10:02;;;;;;;18.40;8.20;;;8.00;99.90;;;;;;4968756;28;20399;-73
2023/12/19 05:12:28;;;;;;;21.60;8.77;;;8.00;99.90;;;;;;4968916;28;20042;-73
2023/12/19 05:14:54;;;;;;;16.65;8.60;;;7.90;99.90;;;;;;4967246;28;20046;-73
2023/12/19 05:17:19;;;;;;;20.02;8.57;;;7.90;99.90;;;;;;4968009;28;20110;-72
2023/12/19 05:19:45;;;;;;;20.20;8.63;;;7.90;99.90;;;;;;4967384;28;20066;-75
2023/12/19 05:22:10;;;;;;;22.33;9.35;;;7.90;99.90;;;;;;4967211;28;20031;-71
2023/12/19 05:24:38;;;;;;;19.33;9.00;;;7.90;99.90;;;;;;4968440;28;20482;-71
2023/12/19 05:27:04;;;;;;;24.13;9.30;;;7.90;99.90;;;;;;4967080;28;20517;-71
2023/12/19 05:29:30;;;;;;;17.65;8.93;;;7.90;99.90;;;;;;4967219;28;20434;-72
2023/12/19 05:31:57;;;;;;;20.67;10.18;;;7.90;99.90;;;;;;4968543;28;20035;-71
2023/12/19 05:34:22;;;;;;;28.02;10.18;;;8.00;99.90;;;;;;4966460;28;20034;-73
2023/12/19 05:36:48;;;;;;;19.95;9.88;;;8.00;99.90;;;;;;4967055;28;20041;-73
2023/12/19 05:39:13;;;;;;;22.98;11.40;;;8.00;99.90;;;;;;4969184;28;20483;-73
2023/12/19 05:41:39;;;;;;;27.92;10.43;;;8.00;99.90;;;;;;4951005;28;20081;-71
2023/12/19 05:44:05;;;;;;;21.05;9.80;;;8.00;99.90;;;;;;4956276;28;20030;-73
2023/12/19 05:46:31;;;;;;;24.13;9.05;;;8.00;99.90;;;;;;4966896;28;20042;-71
2023/12/19 05:48:56;;;;;;;19.67;8.73;;;8.00;99.90;;;;;;4961421;28;20070;-72
2023/12/19 05:51:22;;;;;;;19.23;8.93;;;8.00;99.90;;;;;;4952763;28;20443;-73
2023/12/19 05:53:48;;;;;;;21.08;8.93;;;8.00;99.90;;;;;;4966375;28;20039;-74
2023/12/19 05:56:13;;;;;;;20.13;9.30;;;8.00;99.90;;;;;;4968576;28;20045;-73
2023/12/19 05:58:39;;;;;;;21.83;9.80;;;8.00;99.90;;;;;;4966279;28;20049;-71
2023/12/19 06:01:05;;;;;;;20.77;8.68;;;8.00;99.90;;;;;;4966597;28;20027;-72
2023/12/19 06:03:30;;;;;;;17.33;8.52;;;8.00;99.90;;;;;;4972019;28;20035;-71
2023/12/19 06:05:56;;;;;;;15.38;7.63;;;8.00;99.90;;;;;;4972577;28;20447;-70
2023/12/19 06:08:22;;;;;;;16.50;7.85;;;8.00;99.90;;;;;;4955592;28;20027;-72
2023/12/19 06:10:48;;;;;;;17.02;7.78;;;8.10;99.90;;;;;;4951198;28;20039;-73
2023/12/19 06:13:14;;;;;;;15.88;7.55;;;8.00;99.90;;;;;;4951838;28;20449;-72
2023/12/19 06:15:40;;;;;;;14.93;7.47;;;8.10;99.90;;;;;;4958830;28;20042;-73
2023/12/19 06:18:06;;;;;;;17.23;7.47;;;8.00;99.90;;;;;;4970177;28;20035;-73
2023/12/19 06:20:31;;;;;;;20.40;9.48;;;8.00;99.90;;;;;;4970422;28;20043;-73
2023/12/19 06:22:58;;;;;;;17.75;8.27;;;8.10;99.90;;;;;;4970147;28;20213;-74
2023/12/19 06:25:23;;;;;;;20.90;9.82;;;8.00;99.90;;;;;;4971254;28;20097;-75
2023/12/19 06:27:49;;;;;;;18.58;8.77;;;8.00;99.90;;;;;;4969337;28;20468;-73
2023/12/19 06:30:14;;;;;;;21.65;9.57;;;8.10;99.90;;;;;;4972056;28;20042;-73
2023/12/19 06:32:42;;;;;;;22.33;10.15;;;8.10;99.90;;;;;;4971558;28;20113;-73
2023/12/19 06:35:08;;;;;;;23.50;9.63;;;8.10;99.90;;;;;;4965911;28;20129;-74
2023/12/19 06:37:34;;;;;;;33.80;11.57;;;8.10;99.90;;;;;;4969686;28;20026;-74
2023/12/19 06:40:02;;;;;;;22.30;9.88;;;8.10;99.90;;;;;;4969981;28;20554;-74
2023/12/19 06:42:28;;;;;;;20.75;10.73;;;8.10;99.90;;;;;;4969765;28;20455;-74
2023/12/19 06:44:53;;;;;;;22.25;9.80;;;8.10;99.90;;;;;;4972482;28;20121;-75
2023/12/19 06:47:19;;;;;;;25.63;10.30;;;8.10;99.90;;;;;;4971234;28;20375;-74
2023/12/19 06:49:45;;;;;;;21.48;9.68;;;8.10;99.90;;;;;;4960241;28;20047;-74
2023/12/19 06:52:10;;;;;;;26.90;10.35;;;8.10;99.90;;;;;;4970882;28;20049;-74
2023/12/19 06:54:37;;;;;;;27.45;11.25;;;8.10;99.90;;;;;;4969633;28;20407;-74
2023/12/19 06:57:04;;;;;;;22.92;9.48;;;8.20;99.90;;;;;;4969620;28;20033;-73
2023/12/19 06:59:32;;;;;;;23.63;9.95;;;8.10;99.90;;;;;;4969374;28;20038;-73
2023/12/19 07:01:58;;;;;;;25.27;10.68;;;8.10;99.90;;;;;;4969212;28;20387;-73
2023/12/19 07:04:23;;;;;;;24.80;9.40;;;8.20;99.90;;;;;;4969438;28;20026;-74
2023/12/19 07:06:49;;;;;;;25.70;10.70;;;8.10;99.90;;;;;;4965909;28;20032;-75
2023/12/19 07:09:14;;;;;;;25.40;11.18;;;8.10;99.90;;;;;;4967234;28;20486;-73
2023/12/19 07:11:41;;;;;;;25.08;10.65;;;8.10;99.90;;;;;;4969142;28;20063;-74
2023/12/19 07:14:07;;;;;;;25.15;10.32;;;8.10;99.90;;;;;;4968129;28;20030;-75
2023/12/19 07:16:32;;;;;;;25.83;10.43;;;8.20;99.90;;;;;;4968789;28;20039;-72
2023/12/19 07:18:58;;;;;;;25.42;11.35;;;8.10;99.90;;;;;;4950516;28;20846;-75
2023/12/19 07:21:24;;;;;;;34.33;12.55;;;8.10;99.90;;;;;;4957240;28;20037;-73
2023/12/19 07:23:52;;;;;;;31.00;11.70;;;8.10;99.90;;;;;;4953083;28;20083;-75
2023/12/19 07:26:29;;;;;;;34.90;12.05;;;8.10;99.90;;;;;;4953294;28;20036;-73
2023/12/19 07:28:57;;;;;;;25.98;10.50;;;8.20;99.90;;;;;;4952985;28;20086;-74
2023/12/19 07:31:26;;;;;;;28.52;11.40;;;8.10;99.90;;;;;;4957911;28;20229;-75
2023/12/19 07:33:56;;;;;;;31.40;11.07;;;8.10;99.90;;;;;;4965448;28;20121;-75
2023/12/19 07:36:22;;;;;;;32.08;11.32;;;8.20;99.90;;;;;;4968917;28;20379;-73
2023/12/19 07:38:48;;;;;;;29.30;12.45;;;8.10;99.90;;;;;;4968387;28;20498;-74
2023/12/19 07:41:13;;;;;;;30.85;13.27;;;8.10;99.90;;;;;;4969058;28;20091;-74
2023/12/19 07:43:39;;;;;;;32.03;11.82;;;8.20;99.90;;;;;;4968641;28;20845;-74
2023/12/19 07:46:06;;;;;;;28.13;11.52;;;8.20;99.90;;;;;;4968878;28;20046;-74
2023/12/19 07:48:32;;;;;;;27.98;11.15;;;8.20;99.90;;;;;;4936830;28;20050;-74
2023/12/19 07:50:58;;;;;;;27.67;10.82;;;8.20;99.90;;;;;;4963843;28;20042;-74
2023/12/19 07:53:27;;;;;;;26.45;11.05;;;8.20;99.90;;;;;;4962964;28;20058;-75
2023/12/19 07:55:53;;;;;;;26.88;10.35;;;8.20;99.90;;;;;;4951766;28;20082;-75
2023/12/19 07:58:19;;;;;;;27.48;11.35;;;8.10;99.90;;;;;;4969090;28;20513;-73
2023/12/19 08:00:44;;;;;;;27.42;11.27;;;8.10;99.90;;;;;;4967165;28;20035;-72
2023/12/19 08:03:11;;;;;;;26.52;9.52;;;8.10;99.90;;;;;;4967136;28;20113;-76
2023/12/19 08:05:36;;;;;;;22.15;9.63;;;8.10;99.90;;;;;;4968169;28;20051;-74
2023/12/19 08:08:03;;;;;;;24.80;10.55;;;8.10;99.90;;;;;;4958466;28;20031;-74
2023/12/19 08:10:28;;;;;;;28.17;10.70;;;8.10;99.90;;;;;;4967659;28;20149;-73
2023/12/19 08:12:54;;;;;;;31.02;10.00;;;8.10;99.90;;;;;;4959274;28;20182;-74
2023/12/19 08:15:20;;;;;;;22.92;10.02;;;8.10;99.90;;;;;;4967657;28;20108;-73
2023/12/19 08:17:46;;;;;;;19.58;9.10;;;8.20;99.90;;;;;;4962458;28;20058;-75
2023/12/19 08:20:15;;;;;;;23.23;8.98;;;8.10;99.90;;;;;;4966297;28;20039;-73
2023/12/19 08:22:41;;;;;;;25.52;10.10;;;8.20;99.90;;;;;;4967613;28;20999;-73
2023/12/19 08:25:08;;;;;;;25.73;10.98;;;8.20;99.90;;;;;;4963375;28;20050;-73
2023/12/19 08:27:35;;;;;;;21.70;9.10;;;8.20;99.90;;;;;;4967375;28;20039;-74
2023/12/19 08:30:04;;;;;;;25.65;10.82;;;8.20;99.90;;;;;;4967242;28;20493;-72
2023/12/19 08:32:30;;;;;;;24.23;10.23;;;8.10;99.90;;;;;;4932084;28;20032;-72
2023/12/19 08:34:58;;;;;;;27.83;10.65;;;8.20;99.90;;;;;;4947942;28;20121;-73
2023/12/19 08:37:25;;;;;;;25.40;9.20;;;8.10;99.90;;;;;;4947565;28;20027;-73
2023/12/19 08:39:54;;;;;;;26.13;10.85;;;8.20;99.90;;;;;;4950558;28;20035;-73
2023/12/19 08:42:20;;;;;;;19.30;9.05;;;8.20;99.90;;;;;;4929923;28;20035;-73
2023/12/19 08:44:46;;;;;;;25.33;10.00;;;8.20;99.90;;;;;;4928798;28;20594;-73
2023/12/19 08:47:12;;;;;;;21.75;9.15;;;8.20;99.90;;;;;;4929928;28;20032;-72
2023/12/19 08:49:43;;;;;;;19.23;9.68;;;8.20;99.90;;;;;;4961737;28;20733;-73
2023/12/19 08:52:09;;;;;;;22.08;9.15;;;8.20;99.90;;;;;;4946431;28;20139;-73
2023/12/19 08:54:35;;;;;;;18.60;8.32;;;8.20;99.90;;;;;;4948142;28;20027;-73
2023/12/19 08:57:00;;;;;;;20.23;8.75;;;8.20;99.90;;;;;;4962419;28;20047;-73
2023/12/19 08:59:26;;;;;;;19.17;8.23;;;8.30;99.90;;;;;;4954673;28;20094;-72
2023/12/19 09:01:52;;;;;;;22.42;9.10;;;8.20;99.90;;;;;;4943917;28;20050;-73
2023/12/19 09:04:18;;;;;;;20.55;9.52;;;8.20;99.90;;;;;;4958268;28;20054;-75
2023/12/19 09:06:44;;;;;;;15.93;8.60;;;8.30;99.90;;;;;;4962564;28;20065;-75
2023/12/19 09:09:11;;;;;;;20.13;8.48;;;8.20;99.90;;;;;;4966549;28;20050;-72
2023/12/19 09:11:37;;;;;;;17.70;8.23;;;8.20;99.90;;;;;;4960836;28;20050;-72
2023/12/19 09:14:03;;;;;;;17.45;7.90;;;8.20;99.90;;;;;;4968743;28;20113;-72
2023/12/19 09:16:28;;;;;;;20.27;8.55;;;8.20;99.90;;;;;;4965349;28;20030;-72
2023/12/19 09:18:55;;;;;;;17.83;8.27;;;8.30;99.90;;;;;;4966819;28;20043;-73
2023/12/19 09:21:21;;;;;;;18.90;7.60;;;8.30;99.90;;;;;;4969324;28;20050;-73
2023/12/19 09:23:47;;;;;;;18.08;7.47;;;8.20;99.90;;;;;;4965089;28;20031;-73
2023/12/19 09:26:14;;;;;;;16.08;7.55;;;8.20;99.90;;;;;;4964053;28;20031;-73
2023/12/19 09:28:40;;;;;;;14.80;7.30;;;8.20;99.90;;;;;;4968099;28;20039;-72
2023/12/19 09:31:07;;;;;;;19.38;8.05;;;8.20;99.90;;;;;;4964791;28;20109;-73
2023/12/19 09:33:34;;;;;;;15.05;7.38;;;8.20;99.90;;;;;;4965814;28;20031;-73
2023/12/19 09:36:00;;;;;;;12.23;6.72;;;8.30;99.90;;;;;;4964680;28;20035;-73
2023/12/19 09:38:26;;;;;;;22.40;8.25;;;8.30;99.90;;;;;;4966672;28;20046;-73
2023/12/19 09:40:52;;;;;;;15.95;7.55;;;8.20;99.90;;;;;;4966053;28;20494;-74
2023/12/19 09:43:17;;;;;;;19.92;7.60;;;8.30;99.90;;;;;;4965793;28;20039;-73
2023/12/19 09:45:44;;;;;;;18.63;7.88;;;8.30;99.90;;;;;;4966863;28;20178;-73
2023/12/19 09:48:13;;;;;;;24.48;7.35;;;8.30;99.90;;;;;;4946471;28;20027;-71
2023/12/19 09:50:44;;;;;;;16.23;6.70;;;8.30;99.90;;;;;;4936814;28;20050;-72
2023/12/19 09:53:10;;;;;;;24.23;7.63;;;8.30;99.90;;;;;;4965661;28;20046;-73
2023/12/19 09:55:43;;;;;;;15.98;7.05;;;8.40;99.90;;;;;;4964958;28;20116;-72
2023/12/19 09:58:10;;;;;;;15.00;6.80;;;8.30;99.90;;;;;;4946772;28;20047;-74
2023/12/19 10:00:39;;;;;;;12.93;6.07;;;8.40;99.90;;;;;;4944276;28;20047;-73
2023/12/19 10:03:06;;;;;;;17.52;6.97;;;8.40;99.90;;;;;;4949444;28;20125;-72
2023/12/19 10:05:32;;;;;;;13.98;6.55;;;8.30;99.90;;;;;;4945823;28;20042;-78
2023/12/19 10:07:58;;;;;;;15.73;6.75;;;8.40;99.90;;;;;;4944167;28;20035;-73
2023/12/19 10:10:53;;;;;;;14.13;6.57;;;8.30;99.90;;;;;;4941956;28;20043;-75
2023/12/19 10:13:29;;;;;;;19.05;6.53;;;8.40;99.90;;;;;;4944269;28;20036;-71
2023/12/19 10:16:08;;;;;;;11.88;5.70;;;8.40;99.90;;;;;;4945419;28;20027;-72
2023/12/19 10:18:34;;;;;;;12.75;5.82;;;8.40;99.90;;;;;;4943643;28;20071;-74
2023/12/19 10:21:05;;;;;;;16.48;6.75;;;8.40;99.90;;;;;;4943263;28;20848;-74
2023/12/19 10:23:35;;;;;;;18.25;5.97;;;8.40;99.90;;;;;;4945581;28;20446;-74
2023/12/19 10:26:01;;;;;;;;;;;8.30;99.90;;;;;;4943764;28;20039;-73
2023/12/19 10:28:26;;;;;;;16.08;6.88;;;8.40;99.90;;;;;;4942512;28;20297;-74
2023/12/19 10:31:12;;;;;;;15.23;6.85;;;8.40;99.90;;;;;;4944932;28;20035;-75
2023/12/19 10:33:46;;;;;;;15.35;7.38;;;8.40;99.90;;;;;;4942673;28;20126;-73
2023/12/19 10:36:44;;;;;;;16.52;7.35;;;8.40;99.90;;;;;;4946271;28;20043;-73
2023/12/19 10:39:11;;;;;;;14.70;6.25;;;8.30;99.90;;;;;;4901133;28;20158;-72
2023/12/19 10:41:38;;;;;;;15.40;7.28;;;8.40;99.90;;;;;;4945597;28;20127;-75
2023/12/19 10:44:04;;;;;;;16.20;6.72;;;8.40;99.90;;;;;;4947333;28;20203;-74
2023/12/19 10:46:31;;;;;;;13.07;6.30;;;8.40;99.90;;;;;;4943120;28;20035;-74
2023/12/19 10:49:04;;;;;;;17.08;6.97;;;8.40;99.90;;;;;;4945566;28;20039;-74
2023/12/19 10:51:32;;;;;;;17.75;7.20;;;8.40;99.90;;;;;;4944942;28;20039;-72
2023/12/19 10:54:10;;;;;;;14.38;6.05;;;8.40;99.90;;;;;;4951082;28;20054;-75
2023/12/19 10:57:05;;;;;;;14.85;6.28;;;8.40;99.90;;;;;;4948419;28;20035;-73
2023/12/19 10:59:47;;;;;;;12.00;6.03;;;8.40;99.90;;;;;;4946308;28;20036;-73
2023/12/19 11:02:59;;;;;;;14.57;6.25;;;8.40;99.90;;;;;;4946069;28;20055;-73
2023/12/19 11:05:52;;;;;;;13.93;5.75;;;8.40;99.90;;;;;;4925860;28;20715;-73
2023/12/19 11:08:18;;;;;;;15.07;5.80;;;8.40;99.90;;;;;;4939600;28;20055;-74
2023/12/19 11:10:48;;;;;;;15.00;5.90;;;8.40;99.90;;;;;;4944736;28;20047;-73
2023/12/19 11:13:15;;;;;;;11.10;5.50;;;8.40;99.90;;;;;;4948322;28;20047;-74
2023/12/19 11:15:51;;;;;;;13.05;5.70;;;8.40;99.90;;;;;;4947616;28;20455;-75
2023/12/19 11:18:43;;;;;;;13.10;5.07;;;8.40;99.90;;;;;;4947793;28;20795;-75
2023/12/19 11:21:21;;;;;;;13.23;6.13;;;8.40;99.90;;;;;;4943201;28;20762;-73
2023/12/19 11:24:13;;;;;;;11.32;5.63;;;8.50;99.90;;;;;;4944060;28;20042;-74
2023/12/19 11:26:48;;;;;;;9.23;5.22;;;8.50;99.90;;;;;;4946049;28;20102;-72
2023/12/19 11:29:43;;;;;;;11.60;5.07;;;8.50;99.90;;;;;;4948951;28;21744;-74
2023/12/19 11:32:27;;;;;;;17.73;6.47;;;8.40;99.90;;;;;;4942683;28;20106;-73
2023/12/19 11:34:53;;;;;;;10.02;4.57;;;8.50;99.90;;;;;;4944408;28;20811;-74
2023/12/19 11:37:22;;;;;;;12.07;4.93;;;8.50;99.90;;;;;;4952181;28;20027;-73
2023/12/19 11:39:48;;;;;;;12.82;4.90;;;8.50;99.90;;;;;;4946142;28;20476;-74
2023/12/19 11:42:38;;;;;;;9.70;5.00;;;8.50;99.90;;;;;;4946340;28;20035;-73
2023/12/19 11:45:16;;;;;;;16.70;5.40;;;8.50;99.90;;;;;;4944325;28;20405;-75
2023/12/19 11:47:42;;;;;;;8.93;4.45;;;8.50;99.90;;;;;;4945017;28;20066;-74
2023/12/19 11:50:08;;;;;;;10.20;4.60;;;8.50;99.90;;;;;;4947128;28;20035;-73
2023/12/19 11:52:36;;;;;;;14.80;4.50;;;8.50;99.90;;;;;;4943420;28;20101;-74
2023/12/19 11:55:03;;;;;;;9.73;4.13;;;8.50;99.90;;;;;;4946048;28;20034;-73
2023/12/19 11:57:29;;;;;;;10.15;4.60;;;8.50;99.90;;;;;;4945021;28;20031;-74
2023/12/19 11:59:55;;;;;;;11.88;5.10;;;8.50;99.90;;;;;;4944742;28;20035;-73
2023/12/19 12:02:35;;;;;;;9.93;4.53;;;8.60;99.90;;;;;;4941397;28;20122;-74
2023/12/19 12:05:12;;;;;;;8.77;3.90;;;8.60;99.90;;;;;;4946500;28;20038;-74
2023/12/19 12:07:48;;;;;;;8.35;4.53;;;8.50;99.90;;;;;;4944676;28;20055;-74
2023/12/19 12:10:22;;;;;;;12.38;4.90;;;8.50;99.90;;;;;;4946665;28;20133;-73
2023/12/19 12:12:49;;;;;;;9.52;4.30;;;8.50;99.90;;;;;;4944885;28;20063;-75
2023/12/19 12:15:19;;;;;;;7.60;4.25;;;8.60;99.90;;;;;;4949768;28;20535;-75
2023/12/19 12:17:48;;;;;;;15.68;4.50;;;8.60;99.90;;;;;;4945435;28;20050;-74
2023/12/19 12:20:14;;;;;;;11.13;3.90;;;8.60;99.90;;;;;;4942618;28;20043;-76
2023/12/19 12:22:40;;;;;;;6.28;3.67;;;8.60;99.90;;;;;;4943751;28;20031;-74
2023/12/19 12:25:09;;;;;;;8.05;4.00;;;8.60;99.90;;;;;;4945869;28;20039;-75
2023/12/19 12:27:34;;;;;;;9.30;4.22;;;8.60;99.90;;;;;;4946700;28;20058;-74
2023/12/19 12:30:00;;;;;;;6.75;3.88;;;8.60;99.90;;;;;;4945110;28;20066;-76
2023/12/19 12:32:26;;;;;;;8.50;4.00;;;8.60;99.90;;;;;;4941881;28;20074;-73
2023/12/19 12:34:52;;;;;;;7.85;3.80;;;8.60;99.90;;;;;;4943972;28;20659;-73
2023/12/19 12:37:18;;;;;;;6.30;3.05;;;8.60;99.90;;;;;;4948010;28;20130;-72
2023/12/19 12:39:44;;;;;;;7.75;3.88;;;8.60;99.90;;;;;;4944002;28;20204;-75
2023/12/19 12:42:13;;;;;;;8.45;3.80;;;8.60;99.90;;;;;;4946135;28;20557;-73
2023/12/19 12:44:40;;;;;;;6.63;3.22;;;8.60;99.90;;;;;;4945463;28;20091;-72